createdAt,value
2023-05-02T00:01:10.327Z,11.40
2023-05-02T00:03:39.871Z,11.41
2023-05-02T00:06:09.247Z,11.43
2023-05-02T00:08:35.822Z,11.43
2023-05-02T00:11:02.194Z,11.44
2023-05-02T00:13:29.693Z,11.39
2023-05-02T00:15:56.025Z,11.42
2023-05-02T00:18:24.047Z,11.42
2023-05-02T00:20:59.606Z,11.43
2023-05-02T00:23:26.055Z,11.45
2023-05-02T00:25:52.393Z,11.42
2023-05-02T00:28:18.878Z,11.42
2023-05-02T00:30:46.434Z,11.45
2023-05-02T00:36:01.532Z,11.44
2023-05-02T00:38:31.395Z,11.44
2023-05-02T00:41:00.551Z,11.42
2023-05-02T00:43:32.125Z,11.45
2023-05-02T00:45:58.711Z,11.42
2023-05-02T00:48:33.318Z,11.40
2023-05-02T00:51:06.304Z,11.36
2023-05-02T00:53:32.673Z,11.39
2023-05-02T00:55:59.190Z,11.37
2023-05-02T00:58:26.495Z,11.42
2023-05-02T01:01:30.513Z,11.40
2023-05-02T01:04:07.216Z,11.40
2023-05-02T01:06:53.003Z,11.39
2023-05-02T01:09:27.217Z,11.33
2023-05-02T01:12:10.280Z,11.28
2023-05-02T01:14:44.834Z,11.22
2023-05-02T01:17:14.339Z,11.21
2023-05-02T01:19:52.440Z,11.19
2023-05-02T01:22:20.576Z,11.04
2023-05-02T01:24:58.523Z,11.02
2023-05-02T01:27:36.994Z,11.00
2023-05-02T01:33:02.104Z,11.00
2023-05-02T01:35:37.823Z,10.98
2023-05-02T01:38:08.099Z,10.98
2023-05-02T01:40:39.274Z,10.89
2023-05-02T01:43:09.489Z,10.91
2023-05-02T01:45:50.837Z,10.89
2023-05-02T01:48:21.806Z,10.89
2023-05-02T01:50:52.103Z,10.88
2023-05-02T01:53:21.398Z,10.88
2023-05-02T01:55:52.158Z,10.86
2023-05-02T01:58:19.618Z,10.84
2023-05-02T02:00:51.910Z,10.77
2023-05-02T02:03:24.090Z,10.76
2023-05-02T02:06:01.434Z,10.72
2023-05-02T02:08:28.202Z,10.70
2023-05-02T02:11:08.564Z,10.71
2023-05-02T02:13:43.034Z,10.68
2023-05-02T02:16:16.672Z,10.74
2023-05-02T02:18:47.726Z,10.79
2023-05-02T02:21:22.522Z,10.76
2023-05-02T02:23:56.017Z,10.80
2023-05-02T02:26:31.482Z,10.80
2023-05-02T02:28:58.084Z,10.78
2023-05-02T02:31:32.453Z,10.76
2023-05-02T02:33:59.569Z,10.76
2023-05-02T02:36:46.096Z,10.70
2023-05-02T02:39:31.153Z,10.66
2023-05-02T02:42:23.346Z,10.63
2023-05-02T02:45:44.094Z,10.60
2023-05-02T02:48:24.647Z,10.51
2023-05-02T02:51:09.965Z,10.48
2023-05-02T02:53:47.126Z,10.48
2023-05-02T02:56:28.419Z,10.49
2023-05-02T02:59:16.124Z,10.46
2023-05-02T03:01:53.275Z,10.52
2023-05-02T03:04:25.461Z,10.51
2023-05-02T03:06:55.278Z,10.51
2023-05-02T03:09:26.064Z,10.45
2023-05-02T03:11:52.440Z,10.46
2023-05-02T03:14:18.955Z,10.47
2023-05-02T03:16:45.580Z,10.50
2023-05-02T03:19:21.384Z,10.51
2023-05-02T03:21:47.947Z,10.53
2023-05-02T03:24:22.704Z,10.48
2023-05-02T03:26:49.135Z,10.46
2023-05-02T03:29:21.928Z,10.42
2023-05-02T03:31:48.334Z,10.35
2023-05-02T03:34:14.799Z,10.33
2023-05-02T03:36:44.176Z,10.36
2023-05-02T03:39:13.305Z,10.35
2023-05-02T03:41:39.806Z,10.38
2023-05-02T03:44:09.246Z,10.37
2023-05-02T03:46:38.492Z,10.38
2023-05-02T03:49:05.162Z,10.37
2023-05-02T03:51:33.987Z,10.33
2023-05-02T03:54:03.414Z,10.25
2023-05-02T03:59:17.321Z,10.19
2023-05-02T04:01:50.355Z,10.19
2023-05-02T04:04:19.852Z,10.15
2023-05-02T04:06:49.477Z,10.10
2023-05-02T04:09:18.510Z,10.05
2023-05-02T04:11:49.769Z,10.04
2023-05-02T04:14:16.099Z,10.12
2023-05-02T04:16:56.977Z,10.18
2023-05-02T04:19:25.587Z,10.15
2023-05-02T04:21:52.258Z,10.14
2023-05-02T04:24:18.966Z,10.03
2023-05-02T04:26:49.826Z,10.03
2023-05-02T04:29:16.627Z,10.02
2023-05-02T04:31:43.188Z,10.06
2023-05-02T04:34:09.622Z,10.04
2023-05-02T04:36:45.568Z,10.02
2023-05-02T04:39:11.972Z,9.94
2023-05-02T04:41:41.669Z,9.79
2023-05-02T04:44:11.369Z,9.73
2023-05-02T04:46:40.410Z,9.62
2023-05-02T04:49:12.944Z,9.59
2023-05-02T04:51:39.353Z,9.55
2023-05-02T04:54:09.049Z,9.51
2023-05-02T04:56:38.671Z,9.51
2023-05-02T04:59:12.392Z,9.45
2023-05-02T05:01:41.746Z,9.46
2023-05-02T05:04:09.467Z,9.44
2023-05-02T05:06:36.559Z,9.48
2023-05-02T05:09:06.048Z,9.49
2023-05-02T05:11:40.976Z,9.52
2023-05-02T05:14:07.354Z,9.57
2023-05-02T05:16:33.892Z,9.49
2023-05-02T05:19:01.898Z,9.52
2023-05-02T05:21:31.054Z,9.57
2023-05-02T05:23:57.430Z,9.55
2023-05-02T05:26:25.933Z,9.54
2023-05-02T05:28:55.069Z,9.54
2023-05-02T05:31:22.482Z,9.57
2023-05-02T05:33:52.046Z,9.45
2023-05-02T05:36:23.425Z,9.35
2023-05-02T05:38:56.014Z,9.32
2023-05-02T05:41:23.197Z,9.28
2023-05-02T05:43:49.544Z,9.26
2023-05-02T05:46:19.626Z,9.30
2023-05-02T05:48:48.820Z,9.28
2023-05-02T05:51:20.808Z,9.35
2023-05-02T05:53:50.364Z,9.40
2023-05-02T05:56:22.225Z,9.38
2023-05-02T05:58:55.848Z,9.44
2023-05-02T06:04:10.089Z,9.50
2023-05-02T06:06:36.570Z,9.46
2023-05-02T06:09:04.261Z,9.54
2023-05-02T06:11:40.112Z,9.56
2023-05-02T06:14:06.991Z,9.71
2023-05-02T06:16:41.503Z,9.84
2023-05-02T06:19:08.557Z,9.85
2023-05-02T06:21:37.120Z,9.86
2023-05-02T06:24:07.142Z,10.05
2023-05-02T06:26:33.472Z,10.30
2023-05-02T06:29:03.568Z,10.23
2023-05-02T06:31:33.117Z,10.13
2023-05-02T06:34:07.221Z,10.08
2023-05-02T06:36:33.613Z,10.08
2023-05-02T06:39:03.500Z,10.09
2023-05-02T06:41:32.284Z,10.22
2023-05-02T06:43:58.778Z,10.19
2023-05-02T06:46:34.244Z,10.12
2023-05-02T06:49:03.428Z,10.05
2023-05-02T06:51:45.711Z,9.91
2023-05-02T06:54:26.324Z,9.84
2023-05-02T06:56:54.335Z,9.82
2023-05-02T06:59:21.007Z,9.80
2023-05-02T07:01:50.341Z,9.75
2023-05-02T07:04:24.057Z,9.81
2023-05-02T07:06:53.530Z,9.86
2023-05-02T07:09:27.806Z,9.89
2023-05-02T07:11:54.403Z,10.03
2023-05-02T07:14:21.800Z,10.10
2023-05-02T07:16:51.870Z,10.10
2023-05-02T07:19:18.248Z,10.08
2023-05-02T07:21:44.633Z,10.20
2023-05-02T07:24:14.018Z,10.03
2023-05-02T07:26:43.629Z,9.97
2023-05-02T07:29:10.372Z,10.00
2023-05-02T07:31:39.560Z,9.92
2023-05-02T07:34:08.729Z,9.83
2023-05-02T07:36:42.430Z,9.95
2023-05-02T07:39:11.655Z,9.97
2023-05-02T07:41:45.454Z,10.11
2023-05-02T07:44:14.553Z,9.94
2023-05-02T07:46:41.227Z,10.12
2023-05-02T07:49:11.213Z,10.21
2023-05-02T07:51:41.685Z,10.25
2023-05-02T07:54:21.896Z,10.36
2023-05-02T07:56:53.216Z,10.52
2023-05-02T07:59:22.433Z,10.58
2023-05-02T08:01:49.078Z,10.72
2023-05-02T08:04:19.233Z,10.89
2023-05-02T08:06:45.757Z,10.83
2023-05-02T08:09:12.298Z,10.74
2023-05-02T08:11:47.195Z,10.55
2023-05-02T08:14:15.939Z,10.45
2023-05-02T08:16:44.710Z,10.44
2023-05-02T08:19:12.565Z,10.35
2023-05-02T08:21:38.930Z,10.44
2023-05-02T08:24:11.126Z,10.46
2023-05-02T08:26:37.668Z,10.51
2023-05-02T08:29:04.681Z,10.67
2023-05-02T08:31:33.676Z,10.71
2023-05-02T08:34:03.159Z,10.79
2023-05-02T08:36:37.429Z,11.13
2023-05-02T08:39:03.894Z,11.48
2023-05-02T08:41:31.227Z,11.50
2023-05-02T08:44:01.173Z,11.49
2023-05-02T08:46:31.972Z,11.40
2023-05-02T08:49:13.107Z,11.39
2023-05-02T08:54:27.137Z,11.46
2023-05-02T08:56:56.760Z,11.73
2023-05-02T08:59:28.981Z,11.56
2023-05-02T09:02:12.484Z,11.77
2023-05-02T09:04:42.044Z,11.82
2023-05-02T09:07:15.598Z,11.78
2023-05-02T09:09:42.007Z,11.79
2023-05-02T09:12:08.370Z,11.94
2023-05-02T09:14:37.856Z,12.28
2023-05-02T09:17:07.512Z,12.31
2023-05-02T09:19:34.302Z,12.16
2023-05-02T09:22:03.581Z,12.06
2023-05-02T09:24:30.070Z,11.92
2023-05-02T09:27:05.498Z,12.06
2023-05-02T09:29:38.799Z,12.14
2023-05-02T09:32:14.475Z,12.28
2023-05-02T09:34:45.220Z,12.58
2023-05-02T09:37:37.953Z,12.37
2023-05-02T09:40:11.640Z,12.41
2023-05-02T09:42:41.449Z,12.44
2023-05-02T09:45:08.589Z,12.42
2023-05-02T09:47:37.685Z,12.69
2023-05-02T09:50:06.345Z,12.54
2023-05-02T09:52:40.070Z,12.57
2023-05-02T09:55:21.357Z,13.03
2023-05-02T09:57:50.487Z,12.92
2023-05-02T10:00:21.470Z,12.68
2023-05-02T10:02:51.622Z,12.75
2023-05-02T10:05:22.686Z,13.32
2023-05-02T10:07:49.432Z,13.22
2023-05-02T10:10:17.690Z,13.21
2023-05-02T10:12:48.388Z,13.56
2023-05-02T10:15:22.534Z,13.76
2023-05-02T10:17:52.902Z,13.64
2023-05-02T10:20:27.011Z,13.86
2023-05-02T10:23:03.346Z,13.14
2023-05-02T10:25:30.060Z,13.24
2023-05-02T10:27:59.756Z,13.53
2023-05-02T10:30:30.051Z,13.74
2023-05-02T10:33:11.769Z,14.27
2023-05-02T10:35:45.720Z,13.89
2023-05-02T10:38:19.584Z,13.54
2023-05-02T10:40:57.764Z,13.79
2023-05-02T10:43:29.100Z,13.49
2023-05-02T10:45:58.508Z,13.92
2023-05-02T10:48:30.268Z,14.06
2023-05-02T10:51:03.732Z,14.15
2023-05-02T10:53:55.606Z,14.61
2023-05-02T10:56:22.421Z,14.96
2023-05-02T10:58:50.545Z,14.47
2023-05-02T11:01:40.283Z,13.99
2023-05-02T11:04:09.200Z,13.66
2023-05-02T11:06:59.212Z,13.74
2023-05-02T11:09:33.046Z,14.16
2023-05-02T11:14:53.039Z,14.80
2023-05-02T11:17:21.232Z,14.23
2023-05-02T11:19:56.361Z,13.81
2023-05-02T11:22:29.483Z,13.64
2023-05-02T11:24:59.188Z,13.94
2023-05-02T11:27:33.902Z,14.05
2023-05-02T11:33:22.934Z,14.37
2023-05-02T11:35:49.485Z,14.62
2023-05-02T11:38:20.682Z,15.09
2023-05-02T11:40:59.922Z,14.88
2023-05-02T11:43:31.753Z,14.56
2023-05-02T11:46:14.123Z,14.73
2023-05-02T11:48:45.763Z,14.95
2023-05-02T11:51:22.948Z,15.19
2023-05-02T11:53:49.712Z,15.03
2023-05-02T11:56:16.612Z,14.44
2023-05-02T11:58:44.230Z,14.51
2023-05-02T12:01:15.110Z,14.93
2023-05-02T12:03:46.039Z,14.83
2023-05-02T12:06:16.128Z,14.90
2023-05-02T12:08:45.844Z,15.24
2023-05-02T12:11:18.871Z,15.08
2023-05-02T12:13:48.156Z,15.10
2023-05-02T12:16:15.616Z,14.69
2023-05-02T12:18:50.118Z,14.19
2023-05-02T12:21:17.698Z,14.42
2023-05-02T12:23:46.902Z,14.54
2023-05-02T12:26:23.725Z,14.56
2023-05-02T12:29:00.855Z,14.84
2023-05-02T12:31:32.089Z,14.63
2023-05-02T12:34:00.433Z,14.54
2023-05-02T12:36:30.474Z,14.43
2023-05-02T12:39:01.990Z,14.42
2023-05-02T12:41:37.420Z,14.53
2023-05-02T12:44:05.016Z,14.59
2023-05-02T12:46:32.390Z,14.73
2023-05-02T12:49:09.510Z,14.76
2023-05-02T12:54:23.452Z,14.90
2023-05-02T12:56:53.010Z,14.55
2023-05-02T12:59:32.347Z,14.18
2023-05-02T13:02:19.086Z,14.30
2023-05-02T13:07:31.995Z,15.06
2023-05-02T13:09:58.512Z,15.27
2023-05-02T13:12:26.473Z,15.10
2023-05-02T13:14:54.227Z,15.15
2023-05-02T13:17:23.703Z,14.80
2023-05-02T13:20:01.300Z,14.26
2023-05-02T13:22:29.765Z,14.29
2023-05-02T13:24:59.302Z,13.99
2023-05-02T13:27:28.862Z,13.94
2023-05-02T13:29:55.180Z,13.96
2023-05-02T13:32:32.410Z,13.94
2023-05-02T13:34:58.993Z,13.88
2023-05-02T13:37:28.001Z,13.77
2023-05-02T13:39:57.339Z,14.10
2023-05-02T13:42:31.033Z,14.39
2023-05-02T13:45:02.977Z,14.61
2023-05-02T13:47:34.758Z,14.63
2023-05-02T13:50:01.268Z,14.48
2023-05-02T13:52:27.902Z,14.56
2023-05-02T13:55:02.769Z,14.68
2023-05-02T13:57:29.109Z,14.60
2023-05-02T14:00:02.114Z,14.59
2023-05-02T14:02:28.843Z,14.98
2023-05-02T14:04:55.480Z,14.70
2023-05-02T14:07:22.188Z,14.47
2023-05-02T14:09:55.866Z,14.32
2023-05-02T14:12:33.780Z,14.55
2023-05-02T14:15:00.154Z,14.53
2023-05-02T14:17:36.702Z,14.38
2023-05-02T14:20:03.609Z,14.51
2023-05-02T14:22:30.170Z,14.63
2023-05-02T14:24:56.577Z,14.87
2023-05-02T14:27:23.367Z,14.69
2023-05-02T14:29:49.762Z,14.37
2023-05-02T14:32:25.248Z,14.50
2023-05-02T14:34:51.653Z,14.37
2023-05-02T14:37:24.238Z,14.31
2023-05-02T14:39:56.251Z,14.24
2023-05-02T14:42:31.470Z,14.04
2023-05-02T14:44:59.685Z,14.23
2023-05-02T14:47:35.821Z,14.27
2023-05-02T14:50:08.339Z,14.04
2023-05-02T14:52:37.528Z,14.21
2023-05-02T14:55:06.642Z,14.32
2023-05-02T14:57:33.342Z,13.93
2023-05-02T15:00:04.399Z,14.09
2023-05-02T15:02:31.316Z,13.78
2023-05-02T15:05:02.859Z,13.70
2023-05-02T15:07:29.609Z,13.68
2023-05-02T15:09:56.079Z,13.79
2023-05-02T15:12:22.874Z,13.57
2023-05-02T15:14:49.289Z,13.42
2023-05-02T15:17:15.683Z,13.51
2023-05-02T15:19:44.673Z,13.72
2023-05-02T15:22:15.853Z,13.76
2023-05-02T15:24:43.235Z,13.70
2023-05-02T15:27:20.010Z,13.77
2023-05-02T15:29:51.298Z,13.75
2023-05-02T15:32:22.119Z,14.06
2023-05-02T15:34:54.929Z,14.14
2023-05-02T15:37:24.080Z,14.05
2023-05-02T15:39:53.092Z,14.11
2023-05-02T15:42:19.800Z,14.02
2023-05-02T15:44:46.163Z,14.02
2023-05-02T15:47:12.564Z,14.16
2023-05-02T15:49:41.395Z,14.22
2023-05-02T15:52:10.671Z,14.09
2023-05-02T15:54:41.520Z,13.85
2023-05-02T15:57:07.889Z,13.61
2023-05-02T15:59:34.281Z,13.37
2023-05-02T16:02:00.762Z,13.22
2023-05-02T16:04:31.939Z,13.17
2023-05-02T16:06:58.431Z,13.40
2023-05-02T16:09:24.960Z,13.50
2023-05-02T16:14:46.484Z,13.48
2023-05-02T16:17:23.123Z,13.48
2023-05-02T16:19:49.489Z,13.42
2023-05-02T16:22:16.393Z,13.27
2023-05-02T16:24:48.520Z,13.26
2023-05-02T16:27:14.930Z,13.35
2023-05-02T16:29:43.727Z,13.18
2023-05-02T16:32:13.472Z,13.15
2023-05-02T16:34:39.869Z,12.99
2023-05-02T16:37:08.928Z,13.01
2023-05-02T16:39:39.815Z,13.18
2023-05-02T16:42:09.668Z,13.04
2023-05-02T16:44:38.612Z,12.96
2023-05-02T16:47:05.089Z,12.93
2023-05-02T16:52:18.871Z,12.64
2023-05-02T16:54:45.233Z,12.76
2023-05-02T16:57:11.963Z,12.93
2023-05-02T16:59:40.680Z,12.75
2023-05-02T17:02:09.914Z,12.65
2023-05-02T17:04:36.867Z,12.59
2023-05-02T17:07:11.687Z,12.54
2023-05-02T17:09:39.514Z,12.54
2023-05-02T17:12:07.449Z,12.63
2023-05-02T17:14:38.059Z,12.51
2023-05-02T17:17:07.436Z,12.18
2023-05-02T17:19:42.963Z,12.10
2023-05-02T17:24:57.327Z,12.13
2023-05-02T17:27:23.818Z,12.07
2023-05-02T17:29:50.346Z,11.95
2023-05-02T17:32:19.495Z,11.92
2023-05-02T17:34:49.370Z,11.85
2023-05-02T17:37:16.533Z,11.77
2023-05-02T17:39:43.206Z,11.56
2023-05-02T17:42:12.692Z,11.46
2023-05-02T17:44:39.878Z,11.40
2023-05-02T17:47:08.132Z,11.27
2023-05-02T17:49:37.299Z,11.25
2023-05-02T17:52:07.408Z,11.21
2023-05-02T17:54:34.243Z,11.17
2023-05-02T17:57:00.676Z,11.13
2023-05-02T17:59:27.340Z,11.21
2023-05-02T18:01:54.883Z,11.09
2023-05-02T18:04:23.669Z,11.01
2023-05-02T18:06:50.494Z,10.88
2023-05-02T18:09:19.908Z,10.80
2023-05-02T18:11:53.407Z,10.78
2023-05-02T18:17:07.709Z,10.67
2023-05-02T18:19:37.826Z,10.65
2023-05-02T18:22:08.251Z,10.56
2023-05-02T18:24:37.559Z,10.51
2023-05-02T18:27:06.409Z,10.52
2023-05-02T18:29:40.045Z,10.37
2023-05-02T18:32:06.959Z,10.35
2023-05-02T18:34:36.912Z,10.34
2023-05-02T18:37:08.856Z,10.26
2023-05-02T18:39:39.580Z,10.21
2023-05-02T18:42:10.437Z,10.13
2023-05-02T18:44:36.881Z,10.12
2023-05-02T18:47:04.861Z,10.08
2023-05-02T18:49:31.477Z,10.04
2023-05-02T18:51:57.898Z,9.99
2023-05-02T18:54:32.604Z,9.93
2023-05-02T18:56:59.058Z,9.87
2023-05-02T18:59:31.997Z,9.78
2023-05-02T19:01:58.540Z,9.72
2023-05-02T19:04:25.018Z,9.70
2023-05-02T19:06:59.984Z,9.65
2023-05-02T19:09:26.336Z,9.67
2023-05-02T19:14:37.193Z,9.61
2023-05-02T19:17:07.184Z,9.60
2023-05-02T19:19:33.664Z,9.52
2023-05-02T19:22:08.518Z,9.45
2023-05-02T19:24:45.385Z,9.40
2023-05-02T19:27:14.929Z,9.32
2023-05-02T19:29:45.375Z,9.29
2023-05-02T19:32:14.485Z,9.22
2023-05-02T19:34:41.530Z,9.20
2023-05-02T19:37:20.566Z,9.19
2023-05-02T19:39:49.280Z,9.14
2023-05-02T19:42:15.961Z,9.14
2023-05-02T19:44:45.545Z,9.10
2023-05-02T19:47:11.893Z,9.06
2023-05-02T19:49:40.795Z,8.98
2023-05-02T19:52:10.506Z,8.93
2023-05-02T19:57:23.726Z,8.87
2023-05-02T19:59:53.062Z,8.85
2023-05-02T20:02:19.684Z,8.83
2023-05-02T20:04:49.406Z,8.79
2023-05-02T20:07:15.780Z,8.73
2023-05-02T20:09:42.181Z,8.70
2023-05-02T20:12:12.422Z,8.68
2023-05-02T20:14:41.770Z,8.60
2023-05-02T20:17:08.859Z,8.62
2023-05-02T20:19:35.681Z,8.60
2023-05-02T20:22:04.982Z,8.61
2023-05-02T20:24:31.354Z,8.56
2023-05-02T20:27:01.884Z,8.55
2023-05-02T20:29:28.233Z,8.49
2023-05-02T20:31:56.358Z,8.47
2023-05-02T20:34:23.732Z,8.47
2023-05-02T20:36:56.142Z,8.47
2023-05-02T20:39:24.896Z,8.46
2023-05-02T20:41:51.311Z,8.43
2023-05-02T20:44:18.708Z,8.41
2023-05-02T20:46:45.352Z,8.37
2023-05-02T20:49:14.065Z,8.34
2023-05-02T20:51:43.169Z,8.32
2023-05-02T20:54:11.959Z,8.30
2023-05-02T20:56:39.386Z,8.30
2023-05-02T20:59:06.063Z,8.27
2023-05-02T21:01:33.474Z,8.24
2023-05-02T21:04:04.322Z,8.23
2023-05-02T21:06:34.646Z,8.21
2023-05-02T21:09:04.492Z,8.20
2023-05-02T21:11:33.844Z,8.17
2023-05-02T21:14:02.756Z,8.13
2023-05-02T21:16:29.464Z,8.10
2023-05-02T21:18:59.050Z,8.04
2023-05-02T21:21:26.987Z,8.01
2023-05-02T21:24:00.749Z,7.99
2023-05-02T21:26:27.400Z,7.96
2023-05-02T21:28:54.804Z,7.96
2023-05-02T21:31:24.334Z,7.93
2023-05-02T21:33:50.706Z,7.90
2023-05-02T21:36:20.235Z,7.86
2023-05-02T21:38:50.396Z,7.83
2023-05-02T21:41:19.561Z,7.80
2023-05-02T21:43:46.184Z,7.76
2023-05-02T21:46:12.736Z,7.72
2023-05-02T21:48:39.149Z,7.72
2023-05-02T21:51:15.391Z,7.69
2023-05-02T21:53:42.102Z,7.68
2023-05-02T21:56:13.196Z,7.64
2023-05-02T21:58:39.599Z,7.63
2023-05-02T22:01:06.010Z,7.59
2023-05-02T22:03:36.876Z,7.56
2023-05-02T22:06:06.909Z,7.52
2023-05-02T22:08:35.942Z,7.48
2023-05-02T22:11:09.227Z,7.48
2023-05-02T22:16:20.140Z,7.43
2023-05-02T22:18:50.945Z,7.42
2023-05-02T22:21:21.180Z,7.39
2023-05-02T22:23:53.495Z,7.35
2023-05-02T22:26:28.950Z,7.30
2023-05-02T22:28:58.048Z,7.30
2023-05-02T22:31:26.976Z,7.28
2023-05-02T22:33:53.656Z,7.29
2023-05-02T22:36:22.855Z,7.24
2023-05-02T22:38:51.443Z,7.23
2023-05-02T22:41:18.259Z,7.19
2023-05-02T22:43:48.511Z,7.17
2023-05-02T22:49:02.902Z,7.09
2023-05-02T22:51:29.344Z,7.05
2023-05-02T22:53:56.187Z,7.07
2023-05-02T22:56:30.957Z,7.01
2023-05-02T22:58:57.356Z,6.98
2023-05-02T23:01:25.804Z,7.00
2023-05-02T23:03:52.370Z,6.94
2023-05-02T23:06:22.797Z,6.89
2023-05-02T23:09:01.833Z,6.89
2023-05-02T23:11:31.159Z,6.87
2023-05-02T23:13:57.861Z,6.84
2023-05-02T23:16:24.983Z,6.85
2023-05-02T23:18:51.572Z,6.85
2023-05-02T23:21:28.002Z,6.79
2023-05-02T23:23:56.965Z,6.78
2023-05-02T23:26:23.373Z,6.76
2023-05-02T23:28:52.690Z,6.72
2023-05-02T23:34:00.346Z,6.61
2023-05-02T23:36:36.156Z,6.61
2023-05-02T23:39:02.658Z,6.58
2023-05-02T23:41:32.822Z,6.59
2023-05-02T23:43:59.312Z,6.56
2023-05-02T23:46:25.882Z,6.54
2023-05-02T23:48:58.489Z,6.51
2023-05-02T23:51:29.034Z,6.51
2023-05-02T23:53:59.156Z,6.49
2023-05-02T23:56:28.398Z,6.44
2023-05-02T23:59:06.809Z,6.38
